sensor_id;sensor_type;location;lat;lon;timestamp;P1;durP1;ratioP1;P2;durP2;ratioP2
12970;SDS011;6550;48.650;8.774;2023-07-29T00:02:21;5.37;;;0.80;;
12970;SDS011;6550;48.650;8.774;2023-07-29T00:04:48;4.53;;;0.95;;
12970;SDS011;6550;48.650;8.774;2023-07-29T00:07:17;3.47;;;1.33;;
12970;SDS011;6550;48.650;8.774;2023-07-29T00:09:49;2.10;;;0.60;;
12970;SDS011;6550;48.650;8.774;2023-07-29T00:12:15;3.90;;;1.00;;
12970;SDS011;6550;48.650;8.774;2023-07-29T00:14:42;2.93;;;0.60;;
12970;SDS011;6550;48.650;8.774;2023-07-29T00:17:09;1.57;;;0.60;;
12970;SDS011;6550;48.650;8.774;2023-07-29T00:19:36;3.80;;;1.00;;
12970;SDS011;6550;48.650;8.774;2023-07-29T00:22:05;1.87;;;0.60;;
12970;SDS011;6550;48.650;8.774;2023-07-29T00:24:32;2.63;;;0.77;;
12970;SDS011;6550;48.650;8.774;2023-07-29T00:26:58;3.37;;;0.83;;
12970;SDS011;6550;48.650;8.774;2023-07-29T00:29:27;2.07;;;0.87;;
12970;SDS011;6550;48.650;8.774;2023-07-29T00:31:54;2.80;;;0.60;;
12970;SDS011;6550;48.650;8.774;2023-07-29T00:34:21;7.77;;;1.00;;
12970;SDS011;6550;48.650;8.774;2023-07-29T00:36:48;4.40;;;1.02;;
12970;SDS011;6550;48.650;8.774;2023-07-29T00:39:15;5.50;;;1.00;;
12970;SDS011;6550;48.650;8.774;2023-07-29T00:41:42;4.63;;;0.80;;
12970;SDS011;6550;48.650;8.774;2023-07-29T00:44:08;4.80;;;1.00;;
12970;SDS011;6550;48.650;8.774;2023-07-29T00:46:38;1.73;;;0.77;;
12970;SDS011;6550;48.650;8.774;2023-07-29T00:49:06;3.67;;;0.80;;
12970;SDS011;6550;48.650;8.774;2023-07-29T00:51:33;3.53;;;0.90;;
12970;SDS011;6550;48.650;8.774;2023-07-29T00:54:00;4.77;;;0.90;;
12970;SDS011;6550;48.650;8.774;2023-07-29T00:56:26;4.10;;;0.70;;
12970;SDS011;6550;48.650;8.774;2023-07-29T00:58:56;2.07;;;0.80;;
12970;SDS011;6550;48.650;8.774;2023-07-29T01:01:28;2.53;;;0.83;;
12970;SDS011;6550;48.650;8.774;2023-07-29T01:03:56;4.67;;;0.90;;
12970;SDS011;6550;48.650;8.774;2023-07-29T01:09:01;3.53;;;0.73;;
12970;SDS011;6550;48.650;8.774;2023-07-29T01:11:35;4.93;;;0.97;;
12970;SDS011;6550;48.650;8.774;2023-07-29T01:14:14;1.37;;;0.77;;
12970;SDS011;6550;48.650;8.774;2023-07-29T01:16:55;2.60;;;1.00;;
12970;SDS011;6550;48.650;8.774;2023-07-29T01:22:25;5.80;;;0.80;;
12970;SDS011;6550;48.650;8.774;2023-07-29T01:24:55;2.70;;;0.90;;
12970;SDS011;6550;48.650;8.774;2023-07-29T01:27:25;4.23;;;0.73;;
12970;SDS011;6550;48.650;8.774;2023-07-29T01:29:53;3.90;;;1.00;;
12970;SDS011;6550;48.650;8.774;2023-07-29T01:35:44;1.17;;;0.70;;
12970;SDS011;6550;48.650;8.774;2023-07-29T01:38:24;3.63;;;0.80;;
12970;SDS011;6550;48.650;8.774;2023-07-29T01:41:01;1.80;;;0.80;;
12970;SDS011;6550;48.650;8.774;2023-07-29T01:43:31;0.90;;;0.70;;
12970;SDS011;6550;48.650;8.774;2023-07-29T01:45:58;4.67;;;1.00;;
12970;SDS011;6550;48.650;8.774;2023-07-29T01:48:26;7.93;;;1.00;;
12970;SDS011;6550;48.650;8.774;2023-07-29T01:50:56;1.53;;;0.90;;
12970;SDS011;6550;48.650;8.774;2023-07-29T01:53:23;4.37;;;0.83;;
12970;SDS011;6550;48.650;8.774;2023-07-29T01:55:50;8.13;;;0.90;;
12970;SDS011;6550;48.650;8.774;2023-07-29T01:58:18;6.10;;;0.90;;
12970;SDS011;6550;48.650;8.774;2023-07-29T02:00:47;1.70;;;0.90;;
12970;SDS011;6550;48.650;8.774;2023-07-29T02:03:16;4.47;;;0.80;;
12970;SDS011;6550;48.650;8.774;2023-07-29T02:05:43;5.63;;;1.10;;
12970;SDS011;6550;48.650;8.774;2023-07-29T02:08:10;3.53;;;1.10;;
12970;SDS011;6550;48.650;8.774;2023-07-29T02:10:37;4.03;;;1.30;;
12970;SDS011;6550;48.650;8.774;2023-07-29T02:13:07;1.43;;;1.23;;
12970;SDS011;6550;48.650;8.774;2023-07-29T02:15:33;4.30;;;1.30;;
12970;SDS011;6550;48.650;8.774;2023-07-29T02:18:00;4.43;;;1.60;;
12970;SDS011;6550;48.650;8.774;2023-07-29T02:20:28;3.53;;;1.50;;
12970;SDS011;6550;48.650;8.774;2023-07-29T02:22:55;5.27;;;1.40;;
12970;SDS011;6550;48.650;8.774;2023-07-29T02:25:21;2.93;;;1.40;;
12970;SDS011;6550;48.650;8.774;2023-07-29T02:27:50;6.10;;;1.67;;
12970;SDS011;6550;48.650;8.774;2023-07-29T02:30:17;5.63;;;1.30;;
12970;SDS011;6550;48.650;8.774;2023-07-29T02:32:44;6.80;;;1.87;;
12970;SDS011;6550;48.650;8.774;2023-07-29T02:35:11;3.80;;;1.50;;
12970;SDS011;6550;48.650;8.774;2023-07-29T02:37:38;5.10;;;1.77;;
12970;SDS011;6550;48.650;8.774;2023-07-29T02:40:05;3.10;;;1.77;;
12970;SDS011;6550;48.650;8.774;2023-07-29T02:42:32;8.23;;;1.60;;
12970;SDS011;6550;48.650;8.774;2023-07-29T02:45:01;2.57;;;1.50;;
12970;SDS011;6550;48.650;8.774;2023-07-29T02:47:28;3.30;;;1.25;;
12970;SDS011;6550;48.650;8.774;2023-07-29T02:49:55;2.13;;;1.50;;
12970;SDS011;6550;48.650;8.774;2023-07-29T02:52:25;1.20;;;1.10;;
12970;SDS011;6550;48.650;8.774;2023-07-29T02:54:56;2.13;;;1.27;;
12970;SDS011;6550;48.650;8.774;2023-07-29T02:57:23;2.27;;;1.40;;
12970;SDS011;6550;48.650;8.774;2023-07-29T02:59:52;3.93;;;1.17;;
12970;SDS011;6550;48.650;8.774;2023-07-29T03:02:21;0.90;;;0.90;;
12970;SDS011;6550;48.650;8.774;2023-07-29T03:04:50;2.17;;;1.23;;
12970;SDS011;6550;48.650;8.774;2023-07-29T03:07:17;2.50;;;1.20;;
12970;SDS011;6550;48.650;8.774;2023-07-29T03:09:44;2.03;;;1.10;;
12970;SDS011;6550;48.650;8.774;2023-07-29T03:12:11;2.40;;;1.10;;
12970;SDS011;6550;48.650;8.774;2023-07-29T03:14:40;2.53;;;1.00;;
12970;SDS011;6550;48.650;8.774;2023-07-29T03:17:08;1.43;;;0.90;;
12970;SDS011;6550;48.650;8.774;2023-07-29T03:19:35;2.42;;;1.20;;
12970;SDS011;6550;48.650;8.774;2023-07-29T03:22:02;2.17;;;1.00;;
12970;SDS011;6550;48.650;8.774;2023-07-29T03:24:29;1.23;;;1.03;;
12970;SDS011;6550;48.650;8.774;2023-07-29T03:26:58;1.77;;;0.90;;
12970;SDS011;6550;48.650;8.774;2023-07-29T03:29:25;3.23;;;0.90;;
12970;SDS011;6550;48.650;8.774;2023-07-29T03:31:58;2.80;;;1.13;;
12970;SDS011;6550;48.650;8.774;2023-07-29T03:34:30;3.00;;;0.90;;
12970;SDS011;6550;48.650;8.774;2023-07-29T03:36:58;2.67;;;1.07;;
12970;SDS011;6550;48.650;8.774;2023-07-29T03:39:26;4.63;;;0.85;;
12970;SDS011;6550;48.650;8.774;2023-07-29T03:41:53;2.03;;;0.50;;
12970;SDS011;6550;48.650;8.774;2023-07-29T03:44:20;2.00;;;0.60;;
12970;SDS011;6550;48.650;8.774;2023-07-29T03:46:49;0.70;;;0.70;;
12970;SDS011;6550;48.650;8.774;2023-07-29T03:49:18;1.00;;;0.60;;
12970;SDS011;6550;48.650;8.774;2023-07-29T03:51:45;2.30;;;0.93;;
12970;SDS011;6550;48.650;8.774;2023-07-29T03:54:12;1.13;;;1.00;;
12970;SDS011;6550;48.650;8.774;2023-07-29T03:56:38;0.90;;;0.77;;
12970;SDS011;6550;48.650;8.774;2023-07-29T03:59:05;3.93;;;0.80;;
12970;SDS011;6550;48.650;8.774;2023-07-29T04:01:34;2.83;;;1.13;;
12970;SDS011;6550;48.650;8.774;2023-07-29T04:04:01;1.10;;;1.00;;
12970;SDS011;6550;48.650;8.774;2023-07-29T04:06:28;1.20;;;1.10;;
12970;SDS011;6550;48.650;8.774;2023-07-29T04:08:58;1.10;;;0.97;;
12970;SDS011;6550;48.650;8.774;2023-07-29T04:11:25;2.40;;;1.03;;
12970;SDS011;6550;48.650;8.774;2023-07-29T04:13:52;2.90;;;0.93;;
12970;SDS011;6550;48.650;8.774;2023-07-29T04:16:19;2.73;;;1.00;;
12970;SDS011;6550;48.650;8.774;2023-07-29T04:18:46;3.07;;;1.40;;
12970;SDS011;6550;48.650;8.774;2023-07-29T04:21:17;3.63;;;0.90;;
12970;SDS011;6550;48.650;8.774;2023-07-29T04:23:44;0.83;;;0.80;;
12970;SDS011;6550;48.650;8.774;2023-07-29T04:26:13;1.27;;;1.00;;
12970;SDS011;6550;48.650;8.774;2023-07-29T04:28:40;3.60;;;1.00;;
12970;SDS011;6550;48.650;8.774;2023-07-29T04:31:09;2.23;;;1.17;;
12970;SDS011;6550;48.650;8.774;2023-07-29T04:33:36;3.33;;;1.10;;
12970;SDS011;6550;48.650;8.774;2023-07-29T04:36:05;1.53;;;1.00;;
12970;SDS011;6550;48.650;8.774;2023-07-29T04:38:36;4.13;;;0.97;;
12970;SDS011;6550;48.650;8.774;2023-07-29T04:41:03;1.10;;;0.70;;
12970;SDS011;6550;48.650;8.774;2023-07-29T04:43:33;2.67;;;0.90;;
12970;SDS011;6550;48.650;8.774;2023-07-29T04:46:00;1.20;;;1.10;;
12970;SDS011;6550;48.650;8.774;2023-07-29T04:48:27;2.77;;;0.90;;
12970;SDS011;6550;48.650;8.774;2023-07-29T04:50:56;1.97;;;0.93;;
12970;SDS011;6550;48.650;8.774;2023-07-29T04:53:23;2.50;;;1.30;;
12970;SDS011;6550;48.650;8.774;2023-07-29T04:55:52;2.13;;;1.13;;
12970;SDS011;6550;48.650;8.774;2023-07-29T04:58:19;1.85;;;0.80;;
12970;SDS011;6550;48.650;8.774;2023-07-29T05:00:46;1.50;;;1.40;;
12970;SDS011;6550;48.650;8.774;2023-07-29T05:03:13;1.40;;;1.30;;
12970;SDS011;6550;48.650;8.774;2023-07-29T05:05:40;2.30;;;1.50;;
12970;SDS011;6550;48.650;8.774;2023-07-29T05:08:07;1.60;;;1.50;;
12970;SDS011;6550;48.650;8.774;2023-07-29T05:10:34;1.60;;;1.50;;
12970;SDS011;6550;48.650;8.774;2023-07-29T05:13:01;1.53;;;1.40;;
12970;SDS011;6550;48.650;8.774;2023-07-29T05:15:28;4.37;;;1.13;;
12970;SDS011;6550;48.650;8.774;2023-07-29T05:17:54;1.92;;;1.30;;
12970;SDS011;6550;48.650;8.774;2023-07-29T05:20:21;1.47;;;1.00;;
12970;SDS011;6550;48.650;8.774;2023-07-29T05:22:48;1.33;;;0.97;;
12970;SDS011;6550;48.650;8.774;2023-07-29T05:25:17;3.63;;;1.20;;
12970;SDS011;6550;48.650;8.774;2023-07-29T05:27:43;4.70;;;2.00;;
12970;SDS011;6550;48.650;8.774;2023-07-29T05:30:10;6.57;;;4.07;;
12970;SDS011;6550;48.650;8.774;2023-07-29T05:32:37;7.00;;;5.70;;
12970;SDS011;6550;48.650;8.774;2023-07-29T05:35:04;6.90;;;4.90;;
12970;SDS011;6550;48.650;8.774;2023-07-29T05:37:31;6.40;;;4.83;;
12970;SDS011;6550;48.650;8.774;2023-07-29T05:39:58;6.40;;;4.37;;
12970;SDS011;6550;48.650;8.774;2023-07-29T05:42:25;4.50;;;3.80;;
12970;SDS011;6550;48.650;8.774;2023-07-29T05:44:52;4.73;;;3.73;;
12970;SDS011;6550;48.650;8.774;2023-07-29T05:47:21;6.53;;;3.70;;
12970;SDS011;6550;48.650;8.774;2023-07-29T05:49:48;4.73;;;3.00;;
12970;SDS011;6550;48.650;8.774;2023-07-29T05:52:14;3.97;;;2.90;;
12970;SDS011;6550;48.650;8.774;2023-07-29T05:54:41;4.43;;;2.50;;
12970;SDS011;6550;48.650;8.774;2023-07-29T05:57:11;2.70;;;2.37;;
12970;SDS011;6550;48.650;8.774;2023-07-29T05:59:38;2.57;;;2.07;;
12970;SDS011;6550;48.650;8.774;2023-07-29T06:02:05;3.80;;;2.30;;
12970;SDS011;6550;48.650;8.774;2023-07-29T06:04:33;4.00;;;2.53;;
12970;SDS011;6550;48.650;8.774;2023-07-29T06:07:02;3.23;;;1.90;;
12970;SDS011;6550;48.650;8.774;2023-07-29T06:09:31;1.90;;;1.70;;
12970;SDS011;6550;48.650;8.774;2023-07-29T06:11:58;1.93;;;1.40;;
12970;SDS011;6550;48.650;8.774;2023-07-29T06:14:25;2.80;;;1.93;;
12970;SDS011;6550;48.650;8.774;2023-07-29T06:16:52;1.33;;;1.23;;
12970;SDS011;6550;48.650;8.774;2023-07-29T06:19:21;2.70;;;1.50;;
12970;SDS011;6550;48.650;8.774;2023-07-29T06:21:50;1.47;;;1.13;;
12970;SDS011;6550;48.650;8.774;2023-07-29T06:24:21;1.60;;;1.20;;
12970;SDS011;6550;48.650;8.774;2023-07-29T06:26:50;2.70;;;1.40;;
12970;SDS011;6550;48.650;8.774;2023-07-29T06:29:17;1.83;;;1.33;;
12970;SDS011;6550;48.650;8.774;2023-07-29T06:31:44;2.20;;;1.20;;
12970;SDS011;6550;48.650;8.774;2023-07-29T06:34:13;1.07;;;0.83;;
12970;SDS011;6550;48.650;8.774;2023-07-29T06:36:42;1.60;;;1.10;;
12970;SDS011;6550;48.650;8.774;2023-07-29T06:39:11;1.00;;;0.90;;
12970;SDS011;6550;48.650;8.774;2023-07-29T06:41:42;1.20;;;1.00;;
12970;SDS011;6550;48.650;8.774;2023-07-29T06:44:09;1.73;;;1.00;;
12970;SDS011;6550;48.650;8.774;2023-07-29T06:46:36;4.83;;;1.00;;
12970;SDS011;6550;48.650;8.774;2023-07-29T06:49:04;1.80;;;1.10;;
12970;SDS011;6550;48.650;8.774;2023-07-29T06:51:31;1.23;;;0.80;;
12970;SDS011;6550;48.650;8.774;2023-07-29T06:54:04;1.53;;;1.10;;
12970;SDS011;6550;48.650;8.774;2023-07-29T06:56:32;1.13;;;0.90;;
12970;SDS011;6550;48.650;8.774;2023-07-29T06:59:00;1.53;;;1.07;;
12970;SDS011;6550;48.650;8.774;2023-07-29T07:01:26;2.43;;;1.40;;
12970;SDS011;6550;48.650;8.774;2023-07-29T07:03:53;1.00;;;0.93;;
12970;SDS011;6550;48.650;8.774;2023-07-29T07:06:21;3.70;;;1.00;;
12970;SDS011;6550;48.650;8.774;2023-07-29T07:08:48;2.10;;;1.25;;
12970;SDS011;6550;48.650;8.774;2023-07-29T07:11:15;1.93;;;0.90;;
12970;SDS011;6550;48.650;8.774;2023-07-29T07:13:42;1.17;;;0.93;;
12970;SDS011;6550;48.650;8.774;2023-07-29T07:16:11;0.80;;;0.80;;
12970;SDS011;6550;48.650;8.774;2023-07-29T07:18:43;1.20;;;0.97;;
12970;SDS011;6550;48.650;8.774;2023-07-29T07:21:10;1.00;;;0.80;;
12970;SDS011;6550;48.650;8.774;2023-07-29T07:23:38;0.87;;;0.70;;
12970;SDS011;6550;48.650;8.774;2023-07-29T07:26:05;1.93;;;0.80;;
12970;SDS011;6550;48.650;8.774;2023-07-29T07:28:34;2.10;;;0.80;;
12970;SDS011;6550;48.650;8.774;2023-07-29T07:31:03;2.70;;;0.80;;
12970;SDS011;6550;48.650;8.774;2023-07-29T07:33:30;1.00;;;0.77;;
12970;SDS011;6550;48.650;8.774;2023-07-29T07:35:57;3.97;;;0.80;;
12970;SDS011;6550;48.650;8.774;2023-07-29T07:38:24;0.70;;;0.70;;
12970;SDS011;6550;48.650;8.774;2023-07-29T07:40:54;1.25;;;0.90;;
12970;SDS011;6550;48.650;8.774;2023-07-29T07:43:23;1.00;;;0.80;;
12970;SDS011;6550;48.650;8.774;2023-07-29T07:45:59;1.83;;;0.90;;
12970;SDS011;6550;48.650;8.774;2023-07-29T07:48:27;0.87;;;0.80;;
12970;SDS011;6550;48.650;8.774;2023-07-29T07:50:59;1.23;;;0.70;;
12970;SDS011;6550;48.650;8.774;2023-07-29T07:53:26;0.97;;;0.93;;
12970;SDS011;6550;48.650;8.774;2023-07-29T07:55:52;0.73;;;0.60;;
12970;SDS011;6550;48.650;8.774;2023-07-29T07:58:19;0.77;;;0.77;;
12970;SDS011;6550;48.650;8.774;2023-07-29T08:00:46;0.93;;;0.80;;
12970;SDS011;6550;48.650;8.774;2023-07-29T08:03:15;1.10;;;1.00;;
12970;SDS011;6550;48.650;8.774;2023-07-29T08:05:43;0.80;;;0.70;;
12970;SDS011;6550;48.650;8.774;2023-07-29T08:08:13;0.80;;;0.80;;
12970;SDS011;6550;48.650;8.774;2023-07-29T08:10:39;1.40;;;1.00;;
12970;SDS011;6550;48.650;8.774;2023-07-29T08:13:11;1.15;;;0.90;;
12970;SDS011;6550;48.650;8.774;2023-07-29T08:15:38;2.40;;;0.70;;
12970;SDS011;6550;48.650;8.774;2023-07-29T08:18:05;0.90;;;0.77;;
12970;SDS011;6550;48.650;8.774;2023-07-29T08:20:31;1.00;;;0.80;;
12970;SDS011;6550;48.650;8.774;2023-07-29T08:23:00;0.70;;;0.70;;
12970;SDS011;6550;48.650;8.774;2023-07-29T08:25:28;1.60;;;0.90;;
12970;SDS011;6550;48.650;8.774;2023-07-29T08:28:00;2.33;;;0.97;;
12970;SDS011;6550;48.650;8.774;2023-07-29T08:30:27;0.93;;;0.80;;
12970;SDS011;6550;48.650;8.774;2023-07-29T08:32:53;1.47;;;1.00;;
12970;SDS011;6550;48.650;8.774;2023-07-29T08:35:20;1.80;;;0.80;;
12970;SDS011;6550;48.650;8.774;2023-07-29T08:37:47;1.10;;;1.00;;
12970;SDS011;6550;48.650;8.774;2023-07-29T08:40:14;0.73;;;0.73;;
12970;SDS011;6550;48.650;8.774;2023-07-29T08:42:41;6.70;;;1.20;;
12970;SDS011;6550;48.650;8.774;2023-07-29T08:45:10;3.70;;;0.87;;
12970;SDS011;6550;48.650;8.774;2023-07-29T08:47:38;2.50;;;1.10;;
12970;SDS011;6550;48.650;8.774;2023-07-29T08:50:05;4.27;;;1.27;;
12970;SDS011;6550;48.650;8.774;2023-07-29T08:52:32;2.70;;;0.90;;
12970;SDS011;6550;48.650;8.774;2023-07-29T08:55:01;3.37;;;0.80;;
12970;SDS011;6550;48.650;8.774;2023-07-29T08:57:28;5.77;;;1.23;;
12970;SDS011;6550;48.650;8.774;2023-07-29T08:59:56;2.60;;;0.93;;
12970;SDS011;6550;48.650;8.774;2023-07-29T09:02:26;6.23;;;1.70;;
12970;SDS011;6550;48.650;8.774;2023-07-29T09:04:53;0.73;;;0.73;;
12970;SDS011;6550;48.650;8.774;2023-07-29T09:07:22;3.03;;;0.90;;
12970;SDS011;6550;48.650;8.774;2023-07-29T09:09:52;5.50;;;1.00;;
12970;SDS011;6550;48.650;8.774;2023-07-29T09:12:18;1.47;;;0.90;;
12970;SDS011;6550;48.650;8.774;2023-07-29T09:14:45;1.93;;;0.93;;
12970;SDS011;6550;48.650;8.774;2023-07-29T09:17:12;1.53;;;0.77;;
12970;SDS011;6550;48.650;8.774;2023-07-29T09:19:40;1.73;;;0.80;;
12970;SDS011;6550;48.650;8.774;2023-07-29T09:22:16;2.80;;;0.97;;
12970;SDS011;6550;48.650;8.774;2023-07-29T09:24:46;1.83;;;0.90;;
12970;SDS011;6550;48.650;8.774;2023-07-29T09:27:25;1.40;;;0.80;;
12970;SDS011;6550;48.650;8.774;2023-07-29T09:29:53;0.80;;;0.80;;
12970;SDS011;6550;48.650;8.774;2023-07-29T09:32:24;1.73;;;0.90;;
12970;SDS011;6550;48.650;8.774;2023-07-29T09:34:51;1.83;;;0.80;;
12970;SDS011;6550;48.650;8.774;2023-07-29T09:37:22;2.10;;;0.90;;
12970;SDS011;6550;48.650;8.774;2023-07-29T09:39:49;1.17;;;1.07;;
12970;SDS011;6550;48.650;8.774;2023-07-29T09:42:20;1.07;;;1.07;;
12970;SDS011;6550;48.650;8.774;2023-07-29T09:44:48;0.80;;;0.80;;
12970;SDS011;6550;48.650;8.774;2023-07-29T09:47:20;1.07;;;1.07;;
12970;SDS011;6550;48.650;8.774;2023-07-29T09:49:52;1.85;;;1.17;;
12970;SDS011;6550;48.650;8.774;2023-07-29T09:52:20;1.13;;;1.03;;
12970;SDS011;6550;48.650;8.774;2023-07-29T09:54:48;1.23;;;1.17;;
12970;SDS011;6550;48.650;8.774;2023-07-29T09:57:16;1.57;;;1.10;;
12970;SDS011;6550;48.650;8.774;2023-07-29T09:59:54;2.17;;;1.35;;
12970;SDS011;6550;48.650;8.774;2023-07-29T10:02:22;1.20;;;1.10;;
12970;SDS011;6550;48.650;8.774;2023-07-29T10:04:49;1.57;;;1.03;;
12970;SDS011;6550;48.650;8.774;2023-07-29T10:07:16;1.20;;;1.10;;
12970;SDS011;6550;48.650;8.774;2023-07-29T10:09:45;1.23;;;1.00;;
12970;SDS011;6550;48.650;8.774;2023-07-29T10:12:13;1.00;;;1.00;;
12970;SDS011;6550;48.650;8.774;2023-07-29T10:14:42;2.47;;;1.00;;
12970;SDS011;6550;48.650;8.774;2023-07-29T10:17:14;1.30;;;1.20;;
12970;SDS011;6550;48.650;8.774;2023-07-29T10:19:42;1.10;;;1.00;;
12970;SDS011;6550;48.650;8.774;2023-07-29T10:22:11;1.30;;;1.20;;
12970;SDS011;6550;48.650;8.774;2023-07-29T10:24:41;2.93;;;1.27;;
12970;SDS011;6550;48.650;8.774;2023-07-29T10:27:11;1.53;;;1.13;;
12970;SDS011;6550;48.650;8.774;2023-07-29T10:29:41;1.20;;;1.10;;
12970;SDS011;6550;48.650;8.774;2023-07-29T10:32:10;1.43;;;1.10;;
12970;SDS011;6550;48.650;8.774;2023-07-29T10:34:37;1.27;;;1.17;;
12970;SDS011;6550;48.650;8.774;2023-07-29T10:37:08;1.37;;;1.23;;
12970;SDS011;6550;48.650;8.774;2023-07-29T10:39:38;3.40;;;1.10;;
12970;SDS011;6550;48.650;8.774;2023-07-29T10:42:06;1.53;;;1.10;;
12970;SDS011;6550;48.650;8.774;2023-07-29T10:49:43;2.70;;;1.20;;
12970;SDS011;6550;48.650;8.774;2023-07-29T10:52:15;1.57;;;1.30;;
12970;SDS011;6550;48.650;8.774;2023-07-29T10:54:46;6.00;;;1.70;;
12970;SDS011;6550;48.650;8.774;2023-07-29T10:57:19;1.50;;;1.10;;
12970;SDS011;6550;48.650;8.774;2023-07-29T11:00:03;1.30;;;1.20;;
12970;SDS011;6550;48.650;8.774;2023-07-29T11:02:32;1.40;;;1.07;;
12970;SDS011;6550;48.650;8.774;2023-07-29T11:05:06;2.07;;;1.30;;
12970;SDS011;6550;48.650;8.774;2023-07-29T11:07:44;2.93;;;1.30;;
12970;SDS011;6550;48.650;8.774;2023-07-29T11:10:12;2.20;;;1.30;;
12970;SDS011;6550;48.650;8.774;2023-07-29T11:12:41;1.20;;;1.10;;
12970;SDS011;6550;48.650;8.774;2023-07-29T11:17:36;1.70;;;1.60;;
12970;SDS011;6550;48.650;8.774;2023-07-29T11:20:06;1.63;;;1.40;;
12970;SDS011;6550;48.650;8.774;2023-07-29T11:22:34;10.47;;;2.23;;
12970;SDS011;6550;48.650;8.774;2023-07-29T11:25:02;4.60;;;1.67;;
12970;SDS011;6550;48.650;8.774;2023-07-29T11:27:29;7.60;;;1.47;;
12970;SDS011;6550;48.650;8.774;2023-07-29T11:30:06;5.67;;;1.40;;
12970;SDS011;6550;48.650;8.774;2023-07-29T11:32:37;5.13;;;1.33;;
12970;SDS011;6550;48.650;8.774;2023-07-29T11:35:11;1.90;;;1.10;;
12970;SDS011;6550;48.650;8.774;2023-07-29T11:37:41;2.07;;;1.37;;
12970;SDS011;6550;48.650;8.774;2023-07-29T11:40:12;2.63;;;1.40;;
12970;SDS011;6550;48.650;8.774;2023-07-29T11:42:44;1.27;;;1.00;;
12970;SDS011;6550;48.650;8.774;2023-07-29T11:45:12;1.40;;;1.20;;
12970;SDS011;6550;48.650;8.774;2023-07-29T11:47:43;3.83;;;1.40;;
12970;SDS011;6550;48.650;8.774;2023-07-29T11:50:10;9.10;;;1.30;;
12970;SDS011;6550;48.650;8.774;2023-07-29T11:52:41;1.67;;;1.37;;
12970;SDS011;6550;48.650;8.774;2023-07-29T11:55:15;1.43;;;1.20;;
12970;SDS011;6550;48.650;8.774;2023-07-29T11:57:45;1.53;;;1.30;;
12970;SDS011;6550;48.650;8.774;2023-07-29T12:00:17;1.47;;;1.33;;
12970;SDS011;6550;48.650;8.774;2023-07-29T12:02:44;2.73;;;1.40;;
12970;SDS011;6550;48.650;8.774;2023-07-29T12:05:13;1.23;;;1.13;;
12970;SDS011;6550;48.650;8.774;2023-07-29T12:07:43;1.40;;;1.23;;
12970;SDS011;6550;48.650;8.774;2023-07-29T12:10:11;2.53;;;1.47;;
12970;SDS011;6550;48.650;8.774;2023-07-29T12:12:43;1.90;;;1.30;;
12970;SDS011;6550;48.650;8.774;2023-07-29T12:15:12;2.53;;;1.40;;
12970;SDS011;6550;48.650;8.774;2023-07-29T12:17:39;1.50;;;1.40;;
12970;SDS011;6550;48.650;8.774;2023-07-29T12:20:08;1.43;;;1.30;;
12970;SDS011;6550;48.650;8.774;2023-07-29T12:22:36;3.10;;;1.50;;
12970;SDS011;6550;48.650;8.774;2023-07-29T12:25:03;1.27;;;1.17;;
12970;SDS011;6550;48.650;8.774;2023-07-29T12:27:31;1.40;;;1.30;;
12970;SDS011;6550;48.650;8.774;2023-07-29T12:29:58;1.53;;;1.23;;
12970;SDS011;6550;48.650;8.774;2023-07-29T12:32:31;1.80;;;1.33;;
12970;SDS011;6550;48.650;8.774;2023-07-29T12:34:57;2.20;;;1.40;;
12970;SDS011;6550;48.650;8.774;2023-07-29T12:37:31;1.30;;;1.20;;
12970;SDS011;6550;48.650;8.774;2023-07-29T12:40:01;6.50;;;1.30;;
12970;SDS011;6550;48.650;8.774;2023-07-29T12:42:30;1.53;;;1.10;;
12970;SDS011;6550;48.650;8.774;2023-07-29T12:44:57;1.30;;;1.00;;
12970;SDS011;6550;48.650;8.774;2023-07-29T12:47:24;1.30;;;1.20;;
12970;SDS011;6550;48.650;8.774;2023-07-29T12:49:51;0.90;;;0.90;;
12970;SDS011;6550;48.650;8.774;2023-07-29T12:52:17;1.40;;;1.13;;
12970;SDS011;6550;48.650;8.774;2023-07-29T12:54:45;3.00;;;1.03;;
12970;SDS011;6550;48.650;8.774;2023-07-29T12:57:11;2.40;;;1.40;;
12970;SDS011;6550;48.650;8.774;2023-07-29T12:59:41;2.53;;;1.40;;
12970;SDS011;6550;48.650;8.774;2023-07-29T13:02:07;1.90;;;1.33;;
12970;SDS011;6550;48.650;8.774;2023-07-29T13:04:37;1.27;;;1.10;;
12970;SDS011;6550;48.650;8.774;2023-07-29T13:07:04;1.23;;;1.13;;
12970;SDS011;6550;48.650;8.774;2023-07-29T13:09:33;1.43;;;1.07;;
12970;SDS011;6550;48.650;8.774;2023-07-29T13:12:00;1.37;;;1.17;;
12970;SDS011;6550;48.650;8.774;2023-07-29T13:14:30;1.40;;;1.30;;
12970;SDS011;6550;48.650;8.774;2023-07-29T13:16:57;2.57;;;1.17;;
12970;SDS011;6550;48.650;8.774;2023-07-29T13:19:26;2.47;;;1.40;;
12970;SDS011;6550;48.650;8.774;2023-07-29T13:21:52;2.03;;;1.30;;
12970;SDS011;6550;48.650;8.774;2023-07-29T13:24:19;1.23;;;1.10;;
12970;SDS011;6550;48.650;8.774;2023-07-29T13:26:51;1.33;;;1.23;;
12970;SDS011;6550;48.650;8.774;2023-07-29T13:29:17;1.53;;;1.20;;
12970;SDS011;6550;48.650;8.774;2023-07-29T13:31:47;1.93;;;1.10;;
12970;SDS011;6550;48.650;8.774;2023-07-29T13:34:16;2.77;;;1.57;;
12970;SDS011;6550;48.650;8.774;2023-07-29T13:36:42;1.07;;;1.07;;
12970;SDS011;6550;48.650;8.774;2023-07-29T13:39:09;1.50;;;1.40;;
12970;SDS011;6550;48.650;8.774;2023-07-29T13:41:36;1.30;;;1.20;;
12970;SDS011;6550;48.650;8.774;2023-07-29T13:44:03;2.27;;;1.23;;
12970;SDS011;6550;48.650;8.774;2023-07-29T13:46:29;1.67;;;1.30;;
12970;SDS011;6550;48.650;8.774;2023-07-29T13:48:56;1.50;;;1.40;;
12970;SDS011;6550;48.650;8.774;2023-07-29T13:51:23;2.37;;;1.53;;
12970;SDS011;6550;48.650;8.774;2023-07-29T13:53:52;3.13;;;1.23;;
12970;SDS011;6550;48.650;8.774;2023-07-29T13:56:19;1.30;;;1.20;;
12970;SDS011;6550;48.650;8.774;2023-07-29T13:58:46;2.90;;;1.20;;
12970;SDS011;6550;48.650;8.774;2023-07-29T14:01:15;1.30;;;1.20;;
12970;SDS011;6550;48.650;8.774;2023-07-29T14:03:42;1.47;;;1.27;;
12970;SDS011;6550;48.650;8.774;2023-07-29T14:06:09;1.53;;;1.40;;
12970;SDS011;6550;48.650;8.774;2023-07-29T14:08:36;1.97;;;1.30;;
12970;SDS011;6550;48.650;8.774;2023-07-29T14:11:03;2.73;;;1.00;;
12970;SDS011;6550;48.650;8.774;2023-07-29T14:13:31;1.20;;;1.10;;
12970;SDS011;6550;48.650;8.774;2023-07-29T14:16:00;1.30;;;1.20;;
12970;SDS011;6550;48.650;8.774;2023-07-29T14:18:32;1.20;;;1.10;;
12970;SDS011;6550;48.650;8.774;2023-07-29T14:20:59;1.93;;;1.40;;
12970;SDS011;6550;48.650;8.774;2023-07-29T14:23:28;1.30;;;1.20;;
12970;SDS011;6550;48.650;8.774;2023-07-29T14:25:56;1.40;;;1.30;;
12970;SDS011;6550;48.650;8.774;2023-07-29T14:28:23;1.40;;;1.30;;
12970;SDS011;6550;48.650;8.774;2023-07-29T14:30:49;1.50;;;1.40;;
12970;SDS011;6550;48.650;8.774;2023-07-29T14:33:16;1.33;;;1.23;;
12970;SDS011;6550;48.650;8.774;2023-07-29T14:35:43;1.40;;;1.30;;
12970;SDS011;6550;48.650;8.774;2023-07-29T14:38:12;1.50;;;1.40;;
12970;SDS011;6550;48.650;8.774;2023-07-29T14:40:41;3.17;;;1.20;;
12970;SDS011;6550;48.650;8.774;2023-07-29T14:43:08;2.47;;;1.30;;
12970;SDS011;6550;48.650;8.774;2023-07-29T14:45:39;1.80;;;1.40;;
12970;SDS011;6550;48.650;8.774;2023-07-29T14:48:06;1.33;;;1.23;;
12970;SDS011;6550;48.650;8.774;2023-07-29T14:50:35;1.40;;;1.30;;
12970;SDS011;6550;48.650;8.774;2023-07-29T14:53:04;1.40;;;1.30;;
12970;SDS011;6550;48.650;8.774;2023-07-29T14:55:33;1.20;;;1.10;;
12970;SDS011;6550;48.650;8.774;2023-07-29T14:58:00;1.10;;;1.10;;
12970;SDS011;6550;48.650;8.774;2023-07-29T15:00:29;1.40;;;1.27;;
12970;SDS011;6550;48.650;8.774;2023-07-29T15:02:56;1.30;;;1.10;;
12970;SDS011;6550;48.650;8.774;2023-07-29T15:05:23;1.30;;;1.20;;
12970;SDS011;6550;48.650;8.774;2023-07-29T15:07:52;0.93;;;0.93;;
12970;SDS011;6550;48.650;8.774;2023-07-29T15:10:19;1.20;;;1.10;;
12970;SDS011;6550;48.650;8.774;2023-07-29T15:12:47;2.50;;;1.27;;
12970;SDS011;6550;48.650;8.774;2023-07-29T15:15:14;1.30;;;1.20;;
12970;SDS011;6550;48.650;8.774;2023-07-29T15:17:43;1.30;;;1.20;;
12970;SDS011;6550;48.650;8.774;2023-07-29T15:20:10;1.30;;;1.20;;
12970;SDS011;6550;48.650;8.774;2023-07-29T15:22:38;1.37;;;1.00;;
12970;SDS011;6550;48.650;8.774;2023-07-29T15:25:08;1.23;;;1.20;;